Time;durP1;ratioP1;P1;durP2;ratioP2;P2;SDS_P1;SDS_P2;PMS_P1;PMS_P2;Temp;Humidity;BMP_temperature;BMP_pressure;BME280_temperature;BME280_humidity;BME280_pressure;Samples;Min_cycle;Max_cycle;Signal;HPM_P1;HPM_P2
2021/01/29 00:02:05;;;;;;;0.52;0.52;;;11.70;99.90;;;;;;5052612;28;20167;-76
2021/01/29 00:04:31;;;;;;;0.73;0.63;;;11.70;99.90;;;;;;5052612;28;20270;-76
2021/01/29 00:06:57;;;;;;;2.17;0.85;;;11.80;99.90;;;;;;5052365;28;20202;-75
2021/01/29 00:09:22;;;;;;;0.43;0.35;;;11.80;99.90;;;;;;5052508;28;20203;-75
2021/01/29 00:11:48;;;;;;;0.28;0.28;;;11.80;99.90;;;;;;5052472;28;20242;-75
2021/01/29 00:14:14;;;;;;;0.95;0.95;;;11.60;99.90;;;;;;5052340;28;20174;-75
2021/01/29 00:16:40;;;;;;;7.93;0.68;;;11.60;99.90;;;;;;5052474;28;20187;-75
2021/01/29 00:19:05;;;;;;;2.42;1.45;;;11.50;99.90;;;;;;5052422;28;20178;-75
2021/01/29 00:21:31;;;;;;;0.85;0.85;;;11.50;99.90;;;;;;5034426;28;20211;-74
2021/01/29 00:23:56;;;;;;;0.40;0.40;;;11.40;99.90;;;;;;5055916;28;20662;-75
2021/01/29 00:26:22;;;;;;;2.10;0.95;;;11.40;99.90;;;;;;5055991;28;20189;-75
2021/01/29 00:28:47;;;;;;;0.10;0.10;;;11.40;99.90;;;;;;5055914;28;20203;-74
2021/01/29 00:31:13;;;;;;;0.10;0.10;;;11.40;99.90;;;;;;5055959;28;20163;-76
2021/01/29 00:33:39;;;;;;;3.72;1.02;;;11.50;99.90;;;;;;5055856;28;20155;-76
2021/01/29 00:36:13;;;;;;;0.60;0.60;;;11.60;99.90;;;;;;5055312;28;20643;-75
2021/01/29 00:38:39;;;;;;;0.10;0.10;;;11.60;99.90;;;;;;5055637;28;20171;-75
2021/01/29 00:41:04;;;;;;;0.88;0.88;;;11.80;99.90;;;;;;5055648;28;20171;-76
2021/01/29 00:43:30;;;;;;;0.55;0.50;;;11.70;99.90;;;;;;5055812;28;20164;-75
2021/01/29 00:45:55;;;;;;;0.60;0.60;;;11.60;99.90;;;;;;5055565;28;20727;-74
2021/01/29 00:48:21;;;;;;;0.65;0.30;;;11.50;99.90;;;;;;5055541;28;20226;-76
2021/01/29 00:50:47;;;;;;;1.65;1.10;;;11.50;99.90;;;;;;5055463;28;20220;-74
2021/01/29 00:53:12;;;;;;;0.20;0.20;;;11.60;99.90;;;;;;5055552;28;20194;-75
2021/01/29 00:55:38;;;;;;;0.52;0.35;;;11.70;99.90;;;;;;5055443;28;20194;-75
2021/01/29 00:58:03;;;;;;;3.42;1.40;;;11.70;99.90;;;;;;5055457;28;20272;-75
2021/01/29 01:00:29;;;;;;;0.22;0.22;;;11.70;99.90;;;;;;5055393;28;20166;-75
2021/01/29 01:02:55;;;;;;;0.65;0.50;;;11.90;99.90;;;;;;5055370;28;20555;-75
2021/01/29 01:05:23;;;;;;;0.38;0.38;;;11.70;99.90;;;;;;5055240;28;20183;-75
2021/01/29 01:07:49;;;;;;;0.80;0.80;;;11.70;99.90;;;;;;5055154;28;20720;-75
2021/01/29 01:10:15;;;;;;;0.20;0.20;;;11.80;99.90;;;;;;5055237;28;20172;-75
2021/01/29 01:12:41;;;;;;;0.55;0.52;;;11.80;99.90;;;;;;5055175;28;20630;-74
2021/01/29 01:15:12;;;;;;;0.20;0.20;;;11.80;99.90;;;;;;5055021;28;20193;-75
2021/01/29 01:17:37;;;;;;;0.28;0.20;;;11.80;99.90;;;;;;5055036;28;20248;-75
2021/01/29 01:20:06;;;;;;;0.60;0.60;;;11.90;99.90;;;;;;5055108;28;20615;-76
2021/01/29 01:22:31;;;;;;;0.10;0.10;;;11.90;99.90;;;;;;5054748;28;20219;-75
2021/01/29 01:25:00;;;;;;;0.55;0.55;;;12.00;99.90;;;;;;5054908;28;20178;-75
2021/01/29 01:27:26;;;;;;;0.63;0.63;;;12.00;99.90;;;;;;5054803;28;20635;-74
2021/01/29 01:29:51;;;;;;;0.20;0.20;;;11.90;99.90;;;;;;5054824;28;20163;-75
2021/01/29 01:32:17;;;;;;;0.30;0.30;;;11.90;99.90;;;;;;5054787;28;20171;-74
2021/01/29 01:34:43;;;;;;;0.30;0.30;;;11.80;99.90;;;;;;5035648;28;20174;-75
2021/01/29 01:37:08;;;;;;;0.22;0.22;;;11.60;99.90;;;;;;5054738;28;20197;-75
2021/01/29 01:39:34;;;;;;;0.52;0.52;;;11.70;99.90;;;;;;5054697;28;20167;-75
2021/01/29 01:42:00;;;;;;;0.77;0.60;;;11.70;99.90;;;;;;5054535;28;20254;-75
2021/01/29 01:44:39;;;;;;;0.75;0.75;;;11.80;99.90;;;;;;5054573;28;20178;-75
2021/01/29 01:47:26;;;;;;;0.15;0.15;;;12.00;99.90;;;;;;5054521;28;20200;-76
2021/01/29 01:49:57;;;;;;;0.10;0.10;;;12.10;99.90;;;;;;5054559;28;20175;-74
2021/01/29 01:52:29;;;;;;;0.10;0.10;;;12.00;99.90;;;;;;5036819;28;20268;-76
2021/01/29 01:55:00;;;;;;;0.10;0.10;;;12.00;99.90;;;;;;5054330;28;20665;-77
2021/01/29 01:57:30;;;;;;;2.10;0.43;;;12.00;99.90;;;;;;5054343;28;20301;-78
2021/01/29 02:00:05;;;;;;;0.77;0.75;;;12.10;99.90;;;;;;5054293;28;20166;-76
2021/01/29 02:02:34;;;;;;;0.20;0.20;;;12.00;99.90;;;;;;5054331;28;20162;-78
2021/01/29 02:05:02;;;;;;;0.30;0.30;;;12.00;99.90;;;;;;5053978;28;20194;-75
2021/01/29 02:07:49;;;;;;;0.20;0.20;;;12.00;99.90;;;;;;5054028;28;20166;-79
2021/01/29 02:10:16;;;;;;;0.20;0.20;;;12.00;99.90;;;;;;5036214;28;20171;-77
2021/01/29 02:12:41;;;;;;;0.28;0.28;;;11.80;99.90;;;;;;5036120;28;20677;-77
2021/01/29 02:15:12;;;;;;;0.20;0.20;;;11.90;99.90;;;;;;5053903;28;20286;-75
2021/01/29 02:18:26;;;;;;;0.10;0.10;;;11.90;99.90;;;;;;5053861;28;20639;-76
2021/01/29 02:21:29;;;;;;;0.30;0.30;;;11.90;99.90;;;;;;5053787;28;20225;-75
2021/01/29 02:24:19;;;;;;;0.38;0.38;;;11.90;99.90;;;;;;5054091;28;20171;-73
2021/01/29 02:27:22;;;;;;;0.40;0.32;;;11.80;99.90;;;;;;5053817;28;20198;-75
2021/01/29 02:30:09;;;;;;;0.35;0.35;;;11.70;99.90;;;;;;5053706;28;20670;-74
2021/01/29 02:33:11;;;;;;;0.25;0.25;;;11.80;99.90;;;;;;5053593;28;20518;-75
2021/01/29 02:36:01;;;;;;;0.40;0.25;;;11.80;99.90;;;;;;5053537;28;20186;-76
2021/01/29 02:38:49;;;;;;;0.10;0.10;;;11.70;99.90;;;;;;5053510;28;20171;-74
2021/01/29 02:41:50;;;;;;;0.20;0.20;;;11.70;99.90;;;;;;5053500;28;20159;-75
2021/01/29 02:44:25;;;;;;;0.10;0.10;;;11.80;99.90;;;;;;5053576;28;20573;-75
2021/01/29 02:46:53;;;;;;;0.10;0.10;;;11.90;99.90;;;;;;5035322;28;20208;-76
2021/01/29 02:49:38;;;;;;;0.20;0.20;;;12.10;99.90;;;;;;5053317;28;20199;-76
2021/01/29 02:52:13;;;;;;;0.10;0.10;;;12.00;99.90;;;;;;5053613;28;20178;-75
2021/01/29 02:55:03;;;;;;;0.20;0.20;;;12.10;99.90;;;;;;5053122;28;20220;-75
2021/01/29 02:57:33;;;;;;;0.10;0.10;;;12.10;99.90;;;;;;5053238;28;20182;-74
2021/01/29 03:00:30;;;;;;;0.32;0.22;;;12.20;99.90;;;;;;5053220;28;20155;-74
2021/01/29 03:03:15;;;;;;;0.10;0.10;;;12.10;99.90;;;;;;5049161;28;20218;-75
2021/01/29 03:05:49;;;;;;;0.10;0.10;;;12.10;99.90;;;;;;5053044;28;20213;-74
2021/01/29 03:08:26;;;;;;;0.20;0.20;;;11.80;99.90;;;;;;5053171;28;20550;-73
2021/01/29 03:11:07;;;;;;;0.10;0.10;;;11.70;99.90;;;;;;5053071;28;20162;-74
2021/01/29 03:13:55;;;;;;;0.20;0.20;;;11.60;99.90;;;;;;5053073;28;20159;-75
2021/01/29 03:16:48;;;;;;;0.15;0.15;;;11.60;99.90;;;;;;5052934;28;20202;-75
2021/01/29 03:19:26;;;;;;;0.10;0.10;;;11.50;99.90;;;;;;5048820;28;20187;-74
2021/01/29 03:21:58;;;;;;;0.13;0.13;;;11.50;99.90;;;;;;5035045;28;20215;-74
2021/01/29 03:24:32;;;;;;;0.10;0.10;;;11.50;99.90;;;;;;5046041;22;20166;-76
2021/01/29 03:27:05;;;;;;;0.10;0.10;;;11.60;99.90;;;;;;5015480;28;20219;-76
2021/01/29 03:29:40;;;;;;;0.30;0.30;;;11.50;99.90;;;;;;5015542;28;20196;-75
2021/01/29 03:32:09;;;;;;;0.20;0.20;;;11.40;99.90;;;;;;5015566;28;20643;-75
2021/01/29 03:34:41;;;;;;;0.10;0.10;;;11.40;99.90;;;;;;5033133;28;20164;-74
2021/01/29 03:37:22;;;;;;;0.15;0.15;;;11.40;99.90;;;;;;5033118;28;20220;-75
2021/01/29 03:39:48;;;;;;;0.10;0.10;;;11.40;99.90;;;;;;5033194;28;20160;-76
2021/01/29 03:42:27;;;;;;;0.10;0.10;;;11.40;99.90;;;;;;5033117;28;20164;-76
2021/01/29 03:45:03;;;;;;;0.20;0.20;;;11.40;99.90;;;;;;5032928;28;20164;-75
2021/01/29 03:47:38;;;;;;;0.20;0.20;;;11.40;99.90;;;;;;5033089;28;20191;-75
2021/01/29 03:50:15;;;;;;;0.10;0.10;;;11.40;99.90;;;;;;5033066;28;20242;-76
2021/01/29 03:52:41;;;;;;;0.10;0.10;;;11.40;99.90;;;;;;5033157;28;20164;-76
2021/01/29 03:55:12;;;;;;;0.10;0.10;;;11.40;99.90;;;;;;5032854;28;20187;-75
2021/01/29 03:57:56;;;;;;;1.73;0.30;;;11.40;99.90;;;;;;5034774;28;20647;-76
2021/01/29 04:00:52;;;;;;;0.10;0.10;;;11.30;99.90;;;;;;5036931;28;20167;-75
2021/01/29 04:03:41;;;;;;;0.28;0.28;;;11.40;99.90;;;;;;5036901;28;20211;-76
2021/01/29 04:06:12;;;;;;;0.20;0.20;;;11.40;99.90;;;;;;5036699;28;20192;-75
2021/01/29 04:08:52;;;;;;;0.13;0.13;;;11.30;99.90;;;;;;5036421;28;20227;-74
2021/01/29 04:11:25;;;;;;;0.10;0.10;;;11.20;99.90;;;;;;5036538;28;20168;-75
2021/01/29 04:14:00;;;;;;;0.20;0.20;;;11.20;99.90;;;;;;5036586;28;20164;-75
2021/01/29 04:16:41;;;;;;;0.10;0.10;;;11.20;99.90;;;;;;5036337;28;21066;-75
2021/01/29 04:19:20;;;;;;;0.35;0.35;;;11.20;99.90;;;;;;5036776;28;20171;-74
2021/01/29 04:22:00;;;;;;;15.80;0.52;;;11.20;99.90;;;;;;5036554;28;20203;-75
2021/01/29 04:24:30;;;;;;;0.10;0.10;;;11.10;99.90;;;;;;5018602;28;20176;-76
2021/01/29 04:27:13;;;;;;;0.28;0.28;;;11.20;99.90;;;;;;5036081;28;20238;-76
2021/01/29 04:29:50;;;;;;;0.20;0.20;;;11.20;99.90;;;;;;5036167;28;20195;-76
2021/01/29 04:32:20;;;;;;;0.75;0.50;;;11.10;99.90;;;;;;5036616;28;20639;-75
2021/01/29 04:34:51;;;;;;;0.28;0.28;;;11.10;99.90;;;;;;5036026;28;20242;-75
2021/01/29 04:37:21;;;;;;;0.60;0.60;;;11.10;99.90;;;;;;5036042;28;20159;-76
2021/01/29 04:39:50;;;;;;;0.77;0.77;;;11.10;99.90;;;;;;5036289;28;20613;-77
2021/01/29 04:42:37;;;;;;;0.10;0.10;;;11.00;99.90;;;;;;5036330;28;20172;-75
2021/01/29 04:45:05;;;;;;;0.20;0.20;;;11.00;99.90;;;;;;5035912;28;20250;-76
2021/01/29 04:47:42;;;;;;;0.22;0.22;;;11.10;99.90;;;;;;5035819;28;20247;-74
2021/01/29 04:50:41;;;;;;;0.20;0.20;;;11.10;99.90;;;;;;5035945;28;20164;-76
2021/01/29 04:53:33;;;;;;;0.20;0.20;;;11.10;99.90;;;;;;5035975;28;20160;-76
2021/01/29 04:56:25;;;;;;;0.52;0.52;;;11.00;99.90;;;;;;5035145;28;20211;-76
2021/01/29 04:59:22;;;;;;;0.60;0.60;;;10.90;99.90;;;;;;5035843;28;20198;-76
2021/01/29 05:02:14;;;;;;;2.28;0.45;;;10.90;99.90;;;;;;5035818;28;20160;-75
2021/01/29 05:04:58;;;;;;;0.10;0.10;;;10.90;99.90;;;;;;5035900;28;20489;-75
2021/01/29 05:08:01;;;;;;;0.25;0.25;;;10.90;99.90;;;;;;5035626;28;20632;-75
2021/01/29 05:11:05;;;;;;;0.20;0.20;;;10.90;99.90;;;;;;5017812;28;20274;-74
2021/01/29 05:13:58;;;;;;;0.10;0.10;;;10.90;99.90;;;;;;4936223;29;20577;-74
2021/01/29 05:16:51;;;;;;;0.40;0.40;;;11.00;99.90;;;;;;5032909;28;20207;-75
2021/01/29 05:19:42;;;;;;;1.13;0.82;;;10.90;99.90;;;;;;5035073;28;20254;-74
2021/01/29 05:22:34;;;;;;;3.92;0.88;;;10.80;99.90;;;;;;5018024;28;20180;-74
2021/01/29 05:25:09;;;;;;;0.17;0.17;;;10.80;99.90;;;;;;5035085;28;20223;-74
2021/01/29 05:27:41;;;;;;;2.03;1.85;;;10.80;99.90;;;;;;5034803;28;20631;-74
2021/01/29 05:30:18;;;;;;;0.25;0.25;;;10.80;99.90;;;;;;5035158;28;20160;-75
2021/01/29 05:32:50;;;;;;;0.20;0.20;;;10.80;99.90;;;;;;5035255;28;20632;-76
2021/01/29 05:35:53;;;;;;;0.55;0.55;;;10.80;99.90;;;;;;5017448;28;20207;-76
2021/01/29 05:38:52;;;;;;;0.30;0.30;;;10.80;99.90;;;;;;5034961;28;20247;-75
2021/01/29 05:41:49;;;;;;;8.95;1.52;;;10.80;99.90;;;;;;5016962;28;20172;-76
2021/01/29 05:44:20;;;;;;;0.77;0.77;;;10.90;99.90;;;;;;5034971;28;20207;-75
2021/01/29 05:47:04;;;;;;;0.82;0.82;;;10.90;99.90;;;;;;5034916;28;20188;-76
2021/01/29 05:50:11;;;;;;;4.97;1.98;;;10.90;99.90;;;;;;5034661;28;20214;-76
2021/01/29 05:53:11;;;;;;;1.38;0.70;;;11.00;99.90;;;;;;4935591;29;20281;-76
2021/01/29 05:55:36;;;;;;;2.90;0.50;;;11.00;99.90;;;;;;4935655;29;20215;-75
2021/01/29 05:58:29;;;;;;;0.35;0.35;;;11.00;99.90;;;;;;5006302;28;20242;-76
2021/01/29 06:01:28;;;;;;;4.13;0.98;;;11.00;99.90;;;;;;5034470;28;20168;-75
2021/01/29 06:04:03;;;;;;;0.20;0.20;;;11.00;99.90;;;;;;5016817;28;20520;-75
2021/01/29 06:06:44;;;;;;;0.35;0.35;;;11.10;99.90;;;;;;5034424;28;20551;-76
2021/01/29 06:09:49;;;;;;;3.42;1.65;;;11.00;99.90;;;;;;5034238;28;20705;-76
2021/01/29 06:12:20;;;;;;;2.22;1.45;;;11.00;99.90;;;;;;5016592;28;20167;-76
2021/01/29 06:14:58;;;;;;;1.10;0.77;;;11.00;99.90;;;;;;5033974;28;20203;-74
2021/01/29 06:17:27;;;;;;;1.02;0.90;;;11.10;99.90;;;;;;5033830;28;20255;-75
2021/01/29 06:19:55;;;;;;;0.43;0.43;;;11.00;99.90;;;;;;5033722;28;20497;-75
2021/01/29 06:22:33;;;;;;;0.20;0.20;;;11.00;99.90;;;;;;5034026;28;20535;-76
2021/01/29 06:25:12;;;;;;;0.30;0.30;;;11.00;99.90;;;;;;5034081;28;20255;-75
2021/01/29 06:28:14;;;;;;;0.70;0.57;;;11.00;99.90;;;;;;5033773;28;20164;-75
2021/01/29 06:31:01;;;;;;;0.30;0.30;;;11.00;99.90;;;;;;5033838;28;20167;-75
2021/01/29 06:33:54;;;;;;;10.88;1.13;;;11.00;99.90;;;;;;5033881;28;20171;-77
2021/01/29 06:36:25;;;;;;;1.67;1.58;;;11.00;99.90;;;;;;5033714;28;20218;-76
2021/01/29 06:39:07;;;;;;;1.38;1.27;;;11.00;99.90;;;;;;5033818;28;20178;-76
2021/01/29 06:41:57;;;;;;;0.25;0.25;;;10.90;99.90;;;;;;5015757;28;20194;-76
2021/01/29 06:45:00;;;;;;;1.15;0.68;;;11.00;99.90;;;;;;5033647;28;20164;-74
2021/01/29 06:47:54;;;;;;;1.13;1.10;;;11.10;99.90;;;;;;5033431;28;20164;-74
2021/01/29 06:50:32;;;;;;;2.17;1.20;;;11.10;99.90;;;;;;5026123;28;20190;-76
2021/01/29 06:53:32;;;;;;;2.65;1.65;;;11.00;99.90;;;;;;5033322;28;20730;-75
2021/01/29 06:56:09;;;;;;;1.77;1.23;;;11.00;99.90;;;;;;5027984;28;20227;-75
2021/01/29 06:58:52;;;;;;;0.98;0.35;;;11.00;99.90;;;;;;5033139;28;20186;-74
2021/01/29 07:01:41;;;;;;;0.55;0.45;;;10.90;99.90;;;;;;5032955;28;20156;-73
2021/01/29 07:04:44;;;;;;;1.10;0.73;;;10.80;99.90;;;;;;5033073;28;20168;-75
2021/01/29 07:07:27;;;;;;;1.42;1.17;;;10.70;99.90;;;;;;5033303;28;20236;-76
2021/01/29 07:10:21;;;;;;;0.35;0.35;;;10.70;99.90;;;;;;5033169;28;20263;-76
2021/01/29 07:13:08;;;;;;;14.27;2.10;;;10.70;99.90;;;;;;5032927;28;20175;-75
2021/01/29 07:15:49;;;;;;;3.25;0.93;;;10.70;99.90;;;;;;5032932;28;20183;-77
2021/01/29 07:18:35;;;;;;;0.40;0.40;;;10.70;99.90;;;;;;5023493;28;20184;-76
2021/01/29 07:21:19;;;;;;;1.98;1.88;;;10.60;99.90;;;;;;5013174;28;20168;-77
2021/01/29 07:24:05;;;;;;;3.45;2.08;;;10.50;99.90;;;;;;5013208;28;20160;-77
2021/01/29 07:26:58;;;;;;;4.55;1.65;;;10.60;99.90;;;;;;5013025;28;20224;-77
2021/01/29 07:29:45;;;;;;;11.20;1.02;;;10.60;99.90;;;;;;5012824;28;20233;-76
2021/01/29 07:32:11;;;;;;;26.52;0.65;;;10.60;99.90;;;;;;5013651;28;20168;-74
2021/01/29 07:34:57;;;;;;;0.40;0.40;;;10.60;99.90;;;;;;5016721;28;20598;-75
2021/01/29 07:37:39;;;;;;;1.58;1.10;;;10.70;99.90;;;;;;5016422;28;20168;-74
2021/01/29 07:40:23;;;;;;;0.30;0.30;;;10.70;99.90;;;;;;5017019;28;20211;-75
2021/01/29 07:43:07;;;;;;;0.32;0.32;;;10.70;99.90;;;;;;5016892;28;20571;-75
2021/01/29 07:46:06;;;;;;;0.30;0.30;;;10.70;99.90;;;;;;5016071;28;20199;-75
2021/01/29 07:48:53;;;;;;;0.15;0.15;;;10.70;99.90;;;;;;5016817;28;20203;-76
2021/01/29 07:51:47;;;;;;;0.55;0.55;;;10.70;99.90;;;;;;4999329;28;20632;-77
2021/01/29 07:54:51;;;;;;;2.08;1.98;;;10.60;99.90;;;;;;5016836;28;20168;-77
2021/01/29 07:58:02;;;;;;;0.60;0.60;;;10.50;99.90;;;;;;5016676;28;20188;-76
2021/01/29 08:00:54;;;;;;;0.40;0.40;;;10.60;99.90;;;;;;5016943;28;20169;-78
2021/01/29 08:03:52;;;;;;;6.03;2.05;;;10.60;99.90;;;;;;5016959;28;20598;-76
2021/01/29 08:06:22;;;;;;;5.20;1.83;;;10.50;99.90;;;;;;5016897;28;20200;-76
2021/01/29 08:09:02;;;;;;;23.83;2.05;;;10.50;99.90;;;;;;5016078;28;20200;-76
2021/01/29 08:11:28;;;;;;;11.60;3.15;;;10.70;99.90;;;;;;4999331;28;20165;-75
2021/01/29 08:13:59;;;;;;;0.10;0.10;;;10.70;99.90;;;;;;5016661;28;20192;-75
2021/01/29 08:16:42;;;;;;;0.10;0.10;;;10.70;99.90;;;;;;5016902;28;20543;-75
2021/01/29 08:19:14;;;;;;;35.28;3.15;;;10.70;99.90;;;;;;5016575;28;20664;-79
2021/01/29 08:22:18;;;;;;;0.73;0.73;;;10.60;99.90;;;;;;4999162;28;20160;-79
2021/01/29 08:24:58;;;;;;;0.88;0.68;;;10.70;99.90;;;;;;4985836;28;20307;-76
2021/01/29 08:27:55;;;;;;;1.17;1.13;;;10.80;99.90;;;;;;4998876;28;20176;-76
2021/01/29 08:30:42;;;;;;;0.68;0.68;;;10.70;99.90;;;;;;5017046;28;20169;-76
2021/01/29 08:33:26;;;;;;;6.80;1.75;;;10.80;99.90;;;;;;5016304;28;20296;-75
2021/01/29 08:36:24;;;;;;;0.20;0.20;;;10.90;99.90;;;;;;5015785;28;20196;-75
2021/01/29 08:39:08;;;;;;;9.93;2.85;;;10.90;99.90;;;;;;5015702;28;20208;-76
2021/01/29 08:41:50;;;;;;;21.05;2.78;;;11.00;99.90;;;;;;5015860;28;20247;-73
2021/01/29 08:44:54;;;;;;;8.02;1.05;;;11.00;99.90;;;;;;5015617;28;20179;-75
2021/01/29 08:47:43;;;;;;;1.55;0.82;;;11.00;99.90;;;;;;5015760;28;20629;-76
2021/01/29 08:50:24;;;;;;;0.43;0.43;;;11.10;99.90;;;;;;5015656;28;20164;-75
2021/01/29 08:53:15;;;;;;;1.13;0.70;;;11.10;99.90;;;;;;5015931;28;20179;-77
2021/01/29 08:56:18;;;;;;;2.63;1.55;;;11.10;99.90;;;;;;5015792;28;20242;-79
2021/01/29 08:58:47;;;;;;;0.88;0.88;;;11.20;99.90;;;;;;5015727;28;20567;-80
2021/01/29 09:01:28;;;;;;;0.95;0.95;;;11.30;99.90;;;;;;4998291;28;20596;-75
2021/01/29 09:04:10;;;;;;;4.22;1.35;;;11.30;99.90;;;;;;5015462;28;20161;-77
2021/01/29 09:06:41;;;;;;;7.07;0.90;;;11.30;99.90;;;;;;5015799;28;20188;-77
2021/01/29 09:09:15;;;;;;;1.20;1.20;;;11.30;99.90;;;;;;5015483;28;20216;-77
2021/01/29 09:11:53;;;;;;;0.28;0.28;;;11.30;99.90;;;;;;5015603;28;20336;-77
2021/01/29 09:14:41;;;;;;;1.50;1.40;;;11.30;99.90;;;;;;5015553;28;20231;-77
2021/01/29 09:17:16;;;;;;;0.50;0.40;;;11.40;99.90;;;;;;5015464;28;20157;-76
2021/01/29 09:19:44;;;;;;;0.57;0.57;;;11.30;99.90;;;;;;5015547;28;20164;-77
2021/01/29 09:22:17;;;;;;;6.68;1.40;;;11.40;99.90;;;;;;5014994;28;20176;-79
2021/01/29 09:25:09;;;;;;;0.47;0.47;;;11.40;99.90;;;;;;5018229;28;20211;-77
2021/01/29 09:28:08;;;;;;;2.92;1.95;;;11.40;99.90;;;;;;5034130;28;20202;-77
2021/01/29 09:30:48;;;;;;;10.05;2.85;;;11.50;99.90;;;;;;5033212;28;20646;-76
2021/01/29 09:33:29;;;;;;;0.40;0.40;;;11.60;99.90;;;;;;5016139;28;20512;-75
2021/01/29 09:36:13;;;;;;;1.23;1.20;;;11.60;99.90;;;;;;5034164;28;20662;-75
2021/01/29 09:38:51;;;;;;;3.30;1.20;;;11.60;99.90;;;;;;5034239;28;20519;-76
2021/01/29 09:41:25;;;;;;;9.98;1.50;;;11.50;99.90;;;;;;5034475;28;20174;-77
2021/01/29 09:44:24;;;;;;;0.52;0.52;;;11.60;99.90;;;;;;5034555;28;20263;-77
2021/01/29 09:46:54;;;;;;;0.65;0.65;;;11.70;99.90;;;;;;5034580;28;20192;-76
2021/01/29 09:49:26;;;;;;;5.78;0.63;;;11.70;99.90;;;;;;5034166;28;20667;-77
2021/01/29 09:52:07;;;;;;;4.43;1.23;;;11.70;99.90;;;;;;5032199;28;20597;-76
2021/01/29 09:54:50;;;;;;;0.30;0.30;;;11.60;99.90;;;;;;5027877;28;20188;-76
2021/01/29 09:57:41;;;;;;;2.80;1.50;;;11.80;99.90;;;;;;5034025;28;20164;-75
2021/01/29 10:00:14;;;;;;;2.17;1.05;;;11.90;99.90;;;;;;5016165;28;20254;-77
2021/01/29 10:02:51;;;;;;;1.02;0.85;;;12.00;99.90;;;;;;5033818;28;20520;-77
2021/01/29 10:05:25;;;;;;;0.43;0.43;;;12.00;99.90;;;;;;5034057;28;20226;-75
2021/01/29 10:08:16;;;;;;;6.38;0.93;;;12.00;99.90;;;;;;5034021;28;20339;-76
2021/01/29 10:11:06;;;;;;;8.20;2.75;;;12.10;99.90;;;;;;5033463;28;20667;-79
2021/01/29 10:14:06;;;;;;;1.73;0.60;;;12.10;99.90;;;;;;5033525;28;20164;-78
2021/01/29 10:16:50;;;;;;;3.65;0.88;;;12.00;99.90;;;;;;5033654;28;20200;-76
2021/01/29 10:19:19;;;;;;;0.35;0.35;;;11.90;99.90;;;;;;5033767;28;20163;-77
2021/01/29 10:21:59;;;;;;;0.85;0.85;;;11.90;99.90;;;;;;5024064;28;20207;-76
2021/01/29 10:24:32;;;;;;;0.65;0.65;;;12.00;99.90;;;;;;5031284;28;20255;-75
2021/01/29 10:27:14;;;;;;;1.85;1.75;;;12.10;99.90;;;;;;5014855;28;20215;-76
2021/01/29 10:29:55;;;;;;;5.63;0.50;;;12.00;99.90;;;;;;5032209;28;20259;-76
2021/01/29 10:32:25;;;;;;;0.22;0.22;;;11.90;99.90;;;;;;5030465;28;20171;-76
2021/01/29 10:34:59;;;;;;;12.05;2.70;;;12.00;99.90;;;;;;5031633;28;20177;-75
2021/01/29 10:37:56;;;;;;;0.32;0.32;;;12.00;99.90;;;;;;5028717;28;20179;-76
2021/01/29 10:40:40;;;;;;;1.13;0.50;;;12.00;99.90;;;;;;5031150;28;20168;-76
2021/01/29 10:43:08;;;;;;;8.82;1.60;;;12.00;99.90;;;;;;5028918;28;20492;-77
2021/01/29 10:45:33;;;;;;;1.90;1.52;;;12.00;99.90;;;;;;5031285;28;20199;-76
2021/01/29 10:48:27;;;;;;;6.53;0.55;;;12.20;99.90;;;;;;5031967;28;20569;-76
2021/01/29 10:51:25;;;;;;;0.85;0.85;;;12.20;99.90;;;;;;5025987;28;20659;-76
2021/01/29 10:54:00;;;;;;;0.47;0.47;;;12.10;99.90;;;;;;5031438;28;20164;-74
2021/01/29 10:56:56;;;;;;;2.40;1.88;;;12.20;99.90;;;;;;5008636;28;20725;-76
2021/01/29 10:59:31;;;;;;;2.17;1.98;;;12.10;99.90;;;;;;5031028;28;20560;-76
2021/01/29 11:02:04;;;;;;;1.85;1.45;;;12.20;99.90;;;;;;5013484;28;20631;-74
2021/01/29 11:04:39;;;;;;;0.82;0.82;;;12.30;99.90;;;;;;5031834;28;20160;-75
2021/01/29 11:07:30;;;;;;;5.93;0.82;;;12.30;99.90;;;;;;5031255;28;20203;-75
2021/01/29 11:10:23;;;;;;;1.50;1.48;;;12.20;99.90;;;;;;5030004;28;20209;-74
2021/01/29 11:12:55;;;;;;;0.98;0.32;;;12.10;99.90;;;;;;5030733;28;20209;-73
2021/01/29 11:15:26;;;;;;;5.78;0.73;;;12.10;99.90;;;;;;5031476;28;20282;-74
2021/01/29 11:18:00;;;;;;;27.15;1.27;;;12.00;99.90;;;;;;5030300;28;20176;-74
2021/01/29 11:20:35;;;;;;;9.07;2.72;;;12.00;99.90;;;;;;5025323;28;20187;-73
2021/01/29 11:23:22;;;;;;;6.63;1.35;;;11.90;99.90;;;;;;4993948;28;20168;-74
2021/01/29 11:25:48;;;;;;;27.40;1.55;;;12.00;99.90;;;;;;5010903;28;20240;-77
2021/01/29 11:28:39;;;;;;;1.08;0.63;;;12.00;99.90;;;;;;5013258;28;20247;-76
2021/01/29 11:31:23;;;;;;;5.22;0.88;;;12.00;99.90;;;;;;5031418;28;20176;-75
2021/01/29 11:33:50;;;;;;;5.00;1.70;;;11.90;99.90;;;;;;5031432;28;20172;-75
2021/01/29 11:36:30;;;;;;;16.83;1.27;;;11.90;99.90;;;;;;5031984;28;20202;-73
2021/01/29 11:39:15;;;;;;;0.93;0.93;;;12.10;99.90;;;;;;5032456;28;20174;-74
2021/01/29 11:42:12;;;;;;;0.20;0.20;;;12.10;99.90;;;;;;5032120;28;20222;-73
2021/01/29 11:44:53;;;;;;;1.27;0.40;;;12.20;99.90;;;;;;5032470;28;20164;-73
2021/01/29 11:47:27;;;;;;;13.20;0.82;;;12.20;99.90;;;;;;5032536;28;20167;-75
2021/01/29 11:50:02;;;;;;;0.43;0.43;;;12.20;99.90;;;;;;5032509;28;20298;-73
2021/01/29 11:52:38;;;;;;;0.63;0.63;;;12.20;99.90;;;;;;5031945;28;20195;-74
2021/01/29 11:55:18;;;;;;;1.02;0.93;;;12.30;99.90;;;;;;5022980;28;20203;-73
2021/01/29 11:57:58;;;;;;;6.78;0.50;;;12.40;99.90;;;;;;5012558;28;20220;-75
2021/01/29 12:00:36;;;;;;;0.10;0.10;;;12.80;99.90;;;;;;5012296;28;20157;-73
2021/01/29 12:03:20;;;;;;;0.40;0.40;;;12.90;99.90;;;;;;5012599;28;20754;-74
2021/01/29 12:05:58;;;;;;;1.52;1.38;;;12.80;99.90;;;;;;4994744;28;20193;-74
2021/01/29 12:08:32;;;;;;;1.05;0.73;;;12.90;99.90;;;;;;5011909;28;20192;-74
2021/01/29 12:11:12;;;;;;;0.40;0.40;;;13.10;99.90;;;;;;5012595;28;20168;-74
2021/01/29 12:13:50;;;;;;;0.63;0.60;;;13.20;99.90;;;;;;5012586;28;20156;-75
2021/01/29 12:16:25;;;;;;;0.20;0.20;;;13.10;99.90;;;;;;5012899;28;20359;-77
2021/01/29 12:18:53;;;;;;;0.93;0.93;;;13.00;99.90;;;;;;5014747;28;20243;-78
2021/01/29 12:21:24;;;;;;;0.28;0.25;;;12.80;99.90;;;;;;5016666;28;20173;-79
2021/01/29 12:24:02;;;;;;;0.85;0.73;;;12.90;99.90;;;;;;5016350;28;20515;-74
2021/01/29 12:26:48;;;;;;;1.35;1.00;;;12.90;99.90;;;;;;5015729;28;20224;-75
2021/01/29 12:29:38;;;;;;;25.60;1.30;;;12.90;99.90;;;;;;5015986;28;20196;-75
2021/01/29 12:32:22;;;;;;;0.20;0.20;;;12.80;99.90;;;;;;5016095;28;20180;-75
2021/01/29 12:34:58;;;;;;;1.30;1.23;;;12.60;99.90;;;;;;5015965;28;20169;-73
2021/01/29 12:37:32;;;;;;;0.73;0.73;;;12.50;99.90;;;;;;5016284;28;20494;-75
2021/01/29 12:40:06;;;;;;;5.43;1.95;;;12.30;99.90;;;;;;5015830;28;20157;-75
2021/01/29 12:42:44;;;;;;;24.52;1.45;;;12.10;99.90;;;;;;5034782;23;20199;-77
2021/01/29 12:45:30;;;;;;;10.35;2.40;;;12.10;99.90;;;;;;5075788;28;20194;-76
2021/01/29 12:48:15;;;;;;;0.80;0.68;;;12.00;99.90;;;;;;5059962;28;20208;-76
2021/01/29 12:50:58;;;;;;;0.60;0.60;;;11.90;99.90;;;;;;5077936;28;20155;-78
2021/01/29 12:53:41;;;;;;;1.35;0.45;;;11.80;99.90;;;;;;5076179;28;20153;-77
2021/01/29 12:56:12;;;;;;;5.22;0.47;;;11.40;99.90;;;;;;5075712;28;20637;-78
2021/01/29 12:58:41;;;;;;;0.10;0.10;;;11.10;99.90;;;;;;5057599;28;20182;-77
2021/01/29 13:01:13;;;;;;;0.35;0.35;;;11.10;99.90;;;;;;5076104;28;20163;-80
2021/01/29 13:04:02;;;;;;;0.40;0.40;;;11.00;99.90;;;;;;5075659;28;20167;-77
2021/01/29 13:07:08;;;;;;;0.10;0.10;;;10.90;99.90;;;;;;5075704;28;20204;-77
2021/01/29 13:10:06;;;;;;;1.45;0.63;;;10.80;99.90;;;;;;5058181;28;20339;-76
2021/01/29 13:13:02;;;;;;;1.33;1.23;;;10.80;99.90;;;;;;5057658;28;20170;-79
2021/01/29 13:15:39;;;;;;;0.10;0.10;;;11.00;99.90;;;;;;5074119;28;20628;-76
2021/01/29 13:18:35;;;;;;;0.35;0.35;;;10.90;99.90;;;;;;5057069;28;20552;-77
2021/01/29 13:21:08;;;;;;;0.47;0.47;;;10.90;99.90;;;;;;5071883;28;20197;-80
2021/01/29 13:23:34;;;;;;;2.38;1.85;;;11.00;99.90;;;;;;5057914;28;20169;-79
2021/01/29 13:26:25;;;;;;;2.42;0.77;;;11.00;99.90;;;;;;5073608;28;20194;-81
2021/01/29 13:29:00;;;;;;;1.65;0.55;;;11.10;99.90;;;;;;5056991;28;20344;-79
2021/01/29 13:31:35;;;;;;;0.30;0.30;;;11.30;99.90;;;;;;5074868;28;20695;-79
2021/01/29 13:34:23;;;;;;;1.90;0.93;;;11.40;99.90;;;;;;5056849;28;20525;-80
2021/01/29 13:37:03;;;;;;;0.10;0.10;;;11.50;99.90;;;;;;5056593;28;20285;-78
2021/01/29 13:39:36;;;;;;;0.73;0.73;;;11.50;99.90;;;;;;5074538;28;20570;-78
2021/01/29 13:42:18;;;;;;;0.50;0.50;;;11.60;99.90;;;;;;5056888;28;20209;-77
2021/01/29 13:44:57;;;;;;;5.63;1.25;;;11.50;99.90;;;;;;5074198;28;20707;-77
2021/01/29 13:47:28;;;;;;;0.43;0.43;;;11.50;99.90;;;;;;5074265;28;20219;-77
2021/01/29 13:49:54;;;;;;;0.30;0.30;;;11.60;99.90;;;;;;5074468;28;20560;-78
2021/01/29 13:52:34;;;;;;;6.22;1.33;;;11.80;99.90;;;;;;5056468;28;20170;-77